sensor_id;sensor_type;location;lat;lon;timestamp;P1;durP1;ratioP1;P2;durP2;ratioP2
20140;SDS011;10231;47.702;9.826;2023-04-25T00:00:29;2.80;;;2.60;;
20140;SDS011;10231;47.702;9.826;2023-04-25T00:02:55;2.70;;;2.50;;
20140;SDS011;10231;47.702;9.826;2023-04-25T00:05:21;3.43;;;2.50;;
20140;SDS011;10231;47.702;9.826;2023-04-25T00:07:48;2.57;;;2.43;;
20140;SDS011;10231;47.702;9.826;2023-04-25T00:10:14;2.80;;;2.60;;
20140;SDS011;10231;47.702;9.826;2023-04-25T00:12:40;3.47;;;2.40;;
20140;SDS011;10231;47.702;9.826;2023-04-25T00:15:06;5.07;;;3.00;;
20140;SDS011;10231;47.702;9.826;2023-04-25T00:17:32;3.83;;;2.87;;
20140;SDS011;10231;47.702;9.826;2023-04-25T00:19:59;4.00;;;2.67;;
20140;SDS011;10231;47.702;9.826;2023-04-25T00:22:25;3.17;;;2.77;;
20140;SDS011;10231;47.702;9.826;2023-04-25T00:24:51;2.83;;;2.63;;
20140;SDS011;10231;47.702;9.826;2023-04-25T00:27:18;3.03;;;2.80;;
20140;SDS011;10231;47.702;9.826;2023-04-25T00:29:43;3.80;;;2.80;;
20140;SDS011;10231;47.702;9.826;2023-04-25T00:32:09;2.70;;;2.50;;
20140;SDS011;10231;47.702;9.826;2023-04-25T00:34:35;2.73;;;2.53;;
20140;SDS011;10231;47.702;9.826;2023-04-25T00:37:01;3.77;;;2.80;;
20140;SDS011;10231;47.702;9.826;2023-04-25T00:39:27;3.07;;;2.77;;
20140;SDS011;10231;47.702;9.826;2023-04-25T00:41:53;4.43;;;3.23;;
20140;SDS011;10231;47.702;9.826;2023-04-25T00:44:19;2.93;;;2.73;;
20140;SDS011;10231;47.702;9.826;2023-04-25T00:46:46;3.43;;;2.60;;
20140;SDS011;10231;47.702;9.826;2023-04-25T00:49:13;3.93;;;3.30;;
20140;SDS011;10231;47.702;9.826;2023-04-25T00:51:41;3.03;;;2.83;;
20140;SDS011;10231;47.702;9.826;2023-04-25T00:54:07;3.10;;;2.90;;
20140;SDS011;10231;47.702;9.826;2023-04-25T00:56:32;4.30;;;2.90;;
20140;SDS011;10231;47.702;9.826;2023-04-25T00:58:58;3.70;;;3.33;;
20140;SDS011;10231;47.702;9.826;2023-04-25T01:01:24;4.00;;;2.80;;
20140;SDS011;10231;47.702;9.826;2023-04-25T01:03:49;2.93;;;2.73;;
20140;SDS011;10231;47.702;9.826;2023-04-25T01:06:15;6.33;;;2.97;;
20140;SDS011;10231;47.702;9.826;2023-04-25T01:08:41;3.80;;;3.33;;
20140;SDS011;10231;47.702;9.826;2023-04-25T01:11:07;2.97;;;2.70;;
20140;SDS011;10231;47.702;9.826;2023-04-25T01:13:33;5.57;;;3.30;;
20140;SDS011;10231;47.702;9.826;2023-04-25T01:16:00;4.13;;;3.53;;
20140;SDS011;10231;47.702;9.826;2023-04-25T01:18:26;3.70;;;3.17;;
20140;SDS011;10231;47.702;9.826;2023-04-25T01:20:53;3.77;;;3.50;;
20140;SDS011;10231;47.702;9.826;2023-04-25T01:23:19;3.93;;;3.60;;
20140;SDS011;10231;47.702;9.826;2023-04-25T01:25:45;4.00;;;3.53;;
20140;SDS011;10231;47.702;9.826;2023-04-25T01:28:12;5.00;;;3.60;;
20140;SDS011;10231;47.702;9.826;2023-04-25T01:30:38;3.80;;;3.50;;
20140;SDS011;10231;47.702;9.826;2023-04-25T01:33:05;3.37;;;3.03;;
20140;SDS011;10231;47.702;9.826;2023-04-25T01:35:32;4.17;;;3.77;;
20140;SDS011;10231;47.702;9.826;2023-04-25T01:37:58;3.83;;;3.33;;
20140;SDS011;10231;47.702;9.826;2023-04-25T01:40:24;3.60;;;3.40;;
20140;SDS011;10231;47.702;9.826;2023-04-25T01:42:49;3.77;;;3.20;;
20140;SDS011;10231;47.702;9.826;2023-04-25T01:45:16;4.70;;;3.93;;
20140;SDS011;10231;47.702;9.826;2023-04-25T01:47:42;4.37;;;3.93;;
20140;SDS011;10231;47.702;9.826;2023-04-25T01:50:11;3.50;;;3.20;;
20140;SDS011;10231;47.702;9.826;2023-04-25T01:52:37;3.60;;;3.30;;
20140;SDS011;10231;47.702;9.826;2023-04-25T01:55:03;3.73;;;3.53;;
20140;SDS011;10231;47.702;9.826;2023-04-25T01:57:30;4.60;;;4.10;;
20140;SDS011;10231;47.702;9.826;2023-04-25T02:00:00;4.10;;;3.80;;
20140;SDS011;10231;47.702;9.826;2023-04-25T02:02:27;4.63;;;3.53;;
20140;SDS011;10231;47.702;9.826;2023-04-25T02:04:53;4.17;;;3.87;;
20140;SDS011;10231;47.702;9.826;2023-04-25T02:07:19;4.17;;;3.37;;
20140;SDS011;10231;47.702;9.826;2023-04-25T02:09:45;3.60;;;3.30;;
20140;SDS011;10231;47.702;9.826;2023-04-25T02:12:11;4.33;;;4.00;;
20140;SDS011;10231;47.702;9.826;2023-04-25T02:14:36;3.60;;;3.40;;
20140;SDS011;10231;47.702;9.826;2023-04-25T02:17:02;3.90;;;3.50;;
20140;SDS011;10231;47.702;9.826;2023-04-25T02:19:27;4.07;;;3.53;;
20140;SDS011;10231;47.702;9.826;2023-04-25T02:21:53;4.03;;;3.50;;
20140;SDS011;10231;47.702;9.826;2023-04-25T02:24:19;3.33;;;3.03;;
20140;SDS011;10231;47.702;9.826;2023-04-25T02:26:44;3.77;;;3.47;;
20140;SDS011;10231;47.702;9.826;2023-04-25T02:29:11;4.77;;;4.27;;
20140;SDS011;10231;47.702;9.826;2023-04-25T02:31:37;3.83;;;3.63;;
20140;SDS011;10231;47.702;9.826;2023-04-25T02:34:03;3.97;;;3.67;;
20140;SDS011;10231;47.702;9.826;2023-04-25T02:36:29;4.50;;;4.03;;
20140;SDS011;10231;47.702;9.826;2023-04-25T02:38:57;7.27;;;4.27;;
20140;SDS011;10231;47.702;9.826;2023-04-25T02:41:22;4.50;;;4.17;;
20140;SDS011;10231;47.702;9.826;2023-04-25T02:43:48;3.77;;;3.47;;
20140;SDS011;10231;47.702;9.826;2023-04-25T02:46:13;4.27;;;3.90;;
20140;SDS011;10231;47.702;9.826;2023-04-25T02:48:39;4.50;;;4.20;;
20140;SDS011;10231;47.702;9.826;2023-04-25T02:51:05;4.03;;;3.73;;
20140;SDS011;10231;47.702;9.826;2023-04-25T02:53:30;5.07;;;3.97;;
20140;SDS011;10231;47.702;9.826;2023-04-25T02:55:56;3.87;;;3.50;;
20140;SDS011;10231;47.702;9.826;2023-04-25T02:58:23;4.53;;;4.13;;
20140;SDS011;10231;47.702;9.826;2023-04-25T03:00:48;4.20;;;3.77;;
20140;SDS011;10231;47.702;9.826;2023-04-25T03:03:14;4.93;;;4.43;;
20140;SDS011;10231;47.702;9.826;2023-04-25T03:05:42;4.40;;;3.90;;
20140;SDS011;10231;47.702;9.826;2023-04-25T03:08:08;3.97;;;3.57;;
20140;SDS011;10231;47.702;9.826;2023-04-25T03:10:34;4.43;;;3.80;;
20140;SDS011;10231;47.702;9.826;2023-04-25T03:12:59;5.00;;;3.37;;
20140;SDS011;10231;47.702;9.826;2023-04-25T03:15:25;4.73;;;3.67;;
20140;SDS011;10231;47.702;9.826;2023-04-25T03:17:51;5.07;;;3.80;;
20140;SDS011;10231;47.702;9.826;2023-04-25T03:20:17;5.47;;;4.33;;
20140;SDS011;10231;47.702;9.826;2023-04-25T03:22:42;4.77;;;4.13;;
20140;SDS011;10231;47.702;9.826;2023-04-25T03:25:09;5.90;;;4.40;;
20140;SDS011;10231;47.702;9.826;2023-04-25T03:27:34;4.10;;;3.43;;
20140;SDS011;10231;47.702;9.826;2023-04-25T03:30:00;4.20;;;3.77;;
20140;SDS011;10231;47.702;9.826;2023-04-25T03:32:25;5.30;;;3.90;;
20140;SDS011;10231;47.702;9.826;2023-04-25T03:34:51;4.77;;;3.93;;
20140;SDS011;10231;47.702;9.826;2023-04-25T03:37:16;3.77;;;3.47;;
20140;SDS011;10231;47.702;9.826;2023-04-25T03:39:42;4.90;;;3.60;;
20140;SDS011;10231;47.702;9.826;2023-04-25T03:42:07;4.00;;;3.47;;
20140;SDS011;10231;47.702;9.826;2023-04-25T03:44:33;3.97;;;3.53;;
20140;SDS011;10231;47.702;9.826;2023-04-25T03:46:58;4.30;;;3.90;;
20140;SDS011;10231;47.702;9.826;2023-04-25T03:49:24;6.17;;;3.63;;
20140;SDS011;10231;47.702;9.826;2023-04-25T03:51:50;4.57;;;3.47;;
20140;SDS011;10231;47.702;9.826;2023-04-25T03:54:16;3.67;;;3.40;;
20140;SDS011;10231;47.702;9.826;2023-04-25T03:56:42;3.90;;;3.30;;
20140;SDS011;10231;47.702;9.826;2023-04-25T03:59:07;5.60;;;4.00;;
20140;SDS011;10231;47.702;9.826;2023-04-25T04:01:33;4.07;;;3.63;;
20140;SDS011;10231;47.702;9.826;2023-04-25T04:03:58;3.80;;;3.37;;
20140;SDS011;10231;47.702;9.826;2023-04-25T04:06:24;4.60;;;4.20;;
20140;SDS011;10231;47.702;9.826;2023-04-25T04:08:50;3.53;;;3.23;;
20140;SDS011;10231;47.702;9.826;2023-04-25T04:11:15;4.97;;;3.23;;
20140;SDS011;10231;47.702;9.826;2023-04-25T04:13:41;4.83;;;2.93;;
20140;SDS011;10231;47.702;9.826;2023-04-25T04:16:06;3.93;;;3.00;;
20140;SDS011;10231;47.702;9.826;2023-04-25T04:18:32;4.17;;;3.23;;
20140;SDS011;10231;47.702;9.826;2023-04-25T04:20:58;3.30;;;2.90;;
20140;SDS011;10231;47.702;9.826;2023-04-25T04:23:24;5.30;;;2.67;;
20140;SDS011;10231;47.702;9.826;2023-04-25T04:25:52;3.83;;;2.90;;
20140;SDS011;10231;47.702;9.826;2023-04-25T04:28:18;3.20;;;2.73;;
20140;SDS011;10231;47.702;9.826;2023-04-25T04:30:43;3.07;;;2.73;;
20140;SDS011;10231;47.702;9.826;2023-04-25T04:33:11;6.17;;;2.90;;
20140;SDS011;10231;47.702;9.826;2023-04-25T04:35:37;3.30;;;2.93;;
20140;SDS011;10231;47.702;9.826;2023-04-25T04:38:03;3.90;;;2.60;;
20140;SDS011;10231;47.702;9.826;2023-04-25T04:40:29;4.93;;;3.40;;
20140;SDS011;10231;47.702;9.826;2023-04-25T04:42:56;2.93;;;2.60;;
20140;SDS011;10231;47.702;9.826;2023-04-25T04:45:22;4.60;;;2.97;;
20140;SDS011;10231;47.702;9.826;2023-04-25T04:47:48;5.30;;;2.70;;
20140;SDS011;10231;47.702;9.826;2023-04-25T04:50:15;6.03;;;2.83;;
20140;SDS011;10231;47.702;9.826;2023-04-25T04:52:41;4.20;;;2.87;;
20140;SDS011;10231;47.702;9.826;2023-04-25T04:55:07;2.87;;;2.27;;
20140;SDS011;10231;47.702;9.826;2023-04-25T04:57:33;5.50;;;2.60;;
20140;SDS011;10231;47.702;9.826;2023-04-25T04:59:59;2.53;;;2.27;;
20140;SDS011;10231;47.702;9.826;2023-04-25T05:02:25;6.30;;;2.90;;
20140;SDS011;10231;47.702;9.826;2023-04-25T05:04:51;5.10;;;2.70;;
20140;SDS011;10231;47.702;9.826;2023-04-25T05:07:17;3.83;;;2.73;;
20140;SDS011;10231;47.702;9.826;2023-04-25T05:09:43;4.63;;;2.60;;
20140;SDS011;10231;47.702;9.826;2023-04-25T05:12:09;7.17;;;3.03;;
20140;SDS011;10231;47.702;9.826;2023-04-25T05:14:34;4.17;;;3.30;;
20140;SDS011;10231;47.702;9.826;2023-04-25T05:17:00;5.37;;;3.10;;
20140;SDS011;10231;47.702;9.826;2023-04-25T05:19:26;3.13;;;2.73;;
20140;SDS011;10231;47.702;9.826;2023-04-25T05:21:51;6.23;;;2.83;;
20140;SDS011;10231;47.702;9.826;2023-04-25T05:24:17;2.83;;;2.63;;
20140;SDS011;10231;47.702;9.826;2023-04-25T05:26:42;5.30;;;3.10;;
20140;SDS011;10231;47.702;9.826;2023-04-25T05:29:08;4.97;;;3.53;;
20140;SDS011;10231;47.702;9.826;2023-04-25T05:31:33;2.83;;;2.60;;
20140;SDS011;10231;47.702;9.826;2023-04-25T05:34:00;5.50;;;3.50;;
20140;SDS011;10231;47.702;9.826;2023-04-25T05:36:26;3.40;;;2.73;;
20140;SDS011;10231;47.702;9.826;2023-04-25T05:38:52;4.43;;;2.83;;
20140;SDS011;10231;47.702;9.826;2023-04-25T05:41:17;4.33;;;2.80;;
20140;SDS011;10231;47.702;9.826;2023-04-25T05:43:43;5.00;;;3.00;;
20140;SDS011;10231;47.702;9.826;2023-04-25T05:46:11;4.50;;;3.07;;
20140;SDS011;10231;47.702;9.826;2023-04-25T05:48:38;4.07;;;3.00;;
20140;SDS011;10231;47.702;9.826;2023-04-25T05:51:04;2.90;;;2.60;;
20140;SDS011;10231;47.702;9.826;2023-04-25T05:53:29;5.00;;;3.20;;
20140;SDS011;10231;47.702;9.826;2023-04-25T05:55:55;6.87;;;3.00;;
20140;SDS011;10231;47.702;9.826;2023-04-25T05:58:20;4.30;;;2.90;;
20140;SDS011;10231;47.702;9.826;2023-04-25T06:00:46;4.23;;;3.33;;
20140;SDS011;10231;47.702;9.826;2023-04-25T06:03:12;3.67;;;2.60;;
20140;SDS011;10231;47.702;9.826;2023-04-25T06:05:41;3.63;;;3.00;;
20140;SDS011;10231;47.702;9.826;2023-04-25T06:08:07;3.33;;;3.03;;
20140;SDS011;10231;47.702;9.826;2023-04-25T06:10:32;3.80;;;2.83;;
20140;SDS011;10231;47.702;9.826;2023-04-25T06:12:58;4.93;;;3.03;;
20140;SDS011;10231;47.702;9.826;2023-04-25T06:15:23;4.80;;;3.17;;
20140;SDS011;10231;47.702;9.826;2023-04-25T06:17:49;4.03;;;3.20;;
20140;SDS011;10231;47.702;9.826;2023-04-25T06:20:14;6.23;;;3.10;;
20140;SDS011;10231;47.702;9.826;2023-04-25T06:22:40;5.27;;;2.80;;
20140;SDS011;10231;47.702;9.826;2023-04-25T06:25:06;3.77;;;2.90;;
20140;SDS011;10231;47.702;9.826;2023-04-25T06:27:32;3.23;;;2.93;;
20140;SDS011;10231;47.702;9.826;2023-04-25T06:30:00;3.20;;;2.80;;
20140;SDS011;10231;47.702;9.826;2023-04-25T06:32:26;4.07;;;2.97;;
20140;SDS011;10231;47.702;9.826;2023-04-25T06:34:53;3.10;;;2.80;;
20140;SDS011;10231;47.702;9.826;2023-04-25T06:37:19;4.33;;;3.10;;
20140;SDS011;10231;47.702;9.826;2023-04-25T06:39:44;4.17;;;3.40;;
20140;SDS011;10231;47.702;9.826;2023-04-25T06:42:10;5.50;;;3.67;;
20140;SDS011;10231;47.702;9.826;2023-04-25T06:44:35;5.83;;;3.37;;
20140;SDS011;10231;47.702;9.826;2023-04-25T06:47:01;5.70;;;2.80;;
20140;SDS011;10231;47.702;9.826;2023-04-25T06:49:26;3.87;;;2.57;;
20140;SDS011;10231;47.702;9.826;2023-04-25T06:51:52;3.10;;;2.40;;
20140;SDS011;10231;47.702;9.826;2023-04-25T06:54:17;3.67;;;2.67;;
20140;SDS011;10231;47.702;9.826;2023-04-25T06:56:43;7.20;;;2.70;;
20140;SDS011;10231;47.702;9.826;2023-04-25T06:59:08;4.27;;;2.47;;
20140;SDS011;10231;47.702;9.826;2023-04-25T07:01:34;4.77;;;2.47;;
20140;SDS011;10231;47.702;9.826;2023-04-25T07:04:00;3.00;;;2.70;;
20140;SDS011;10231;47.702;9.826;2023-04-25T07:06:26;7.20;;;2.70;;
20140;SDS011;10231;47.702;9.826;2023-04-25T07:08:52;5.57;;;2.60;;
20140;SDS011;10231;47.702;9.826;2023-04-25T07:11:18;3.13;;;2.20;;
20140;SDS011;10231;47.702;9.826;2023-04-25T07:13:43;3.93;;;2.27;;
20140;SDS011;10231;47.702;9.826;2023-04-25T07:16:09;5.17;;;2.27;;
20140;SDS011;10231;47.702;9.826;2023-04-25T07:18:35;5.23;;;2.37;;
20140;SDS011;10231;47.702;9.826;2023-04-25T07:21:00;3.97;;;2.30;;
20140;SDS011;10231;47.702;9.826;2023-04-25T07:23:26;3.10;;;2.23;;
20140;SDS011;10231;47.702;9.826;2023-04-25T07:25:51;3.07;;;2.00;;
20140;SDS011;10231;47.702;9.826;2023-04-25T07:28:17;6.73;;;2.10;;
20140;SDS011;10231;47.702;9.826;2023-04-25T07:30:42;2.60;;;2.40;;
20140;SDS011;10231;47.702;9.826;2023-04-25T07:33:08;4.77;;;2.23;;
20140;SDS011;10231;47.702;9.826;2023-04-25T07:35:34;6.87;;;2.43;;
20140;SDS011;10231;47.702;9.826;2023-04-25T07:38:00;3.47;;;1.70;;
20140;SDS011;10231;47.702;9.826;2023-04-25T07:40:26;2.90;;;1.87;;
20140;SDS011;10231;47.702;9.826;2023-04-25T07:42:52;4.03;;;2.07;;
20140;SDS011;10231;47.702;9.826;2023-04-25T07:45:17;4.63;;;2.30;;
20140;SDS011;10231;47.702;9.826;2023-04-25T07:47:43;4.10;;;2.30;;
20140;SDS011;10231;47.702;9.826;2023-04-25T07:50:08;5.93;;;3.03;;
20140;SDS011;10231;47.702;9.826;2023-04-25T07:52:35;3.80;;;2.87;;
20140;SDS011;10231;47.702;9.826;2023-04-25T07:55:01;4.47;;;2.00;;
20140;SDS011;10231;47.702;9.826;2023-04-25T07:57:26;2.00;;;1.80;;
20140;SDS011;10231;47.702;9.826;2023-04-25T07:59:52;4.50;;;1.53;;
20140;SDS011;10231;47.702;9.826;2023-04-25T08:02:17;1.90;;;1.70;;
20140;SDS011;10231;47.702;9.826;2023-04-25T08:04:43;2.40;;;2.20;;
20140;SDS011;10231;47.702;9.826;2023-04-25T08:07:08;4.33;;;2.20;;
20140;SDS011;10231;47.702;9.826;2023-04-25T08:09:34;3.53;;;1.60;;
20140;SDS011;10231;47.702;9.826;2023-04-25T08:12:01;2.23;;;1.50;;
20140;SDS011;10231;47.702;9.826;2023-04-25T08:14:28;2.43;;;1.70;;
20140;SDS011;10231;47.702;9.826;2023-04-25T08:16:56;3.70;;;1.80;;
20140;SDS011;10231;47.702;9.826;2023-04-25T08:19:21;2.10;;;1.50;;
20140;SDS011;10231;47.702;9.826;2023-04-25T08:21:47;2.33;;;1.37;;
20140;SDS011;10231;47.702;9.826;2023-04-25T08:24:12;4.10;;;1.67;;
20140;SDS011;10231;47.702;9.826;2023-04-25T08:26:38;4.47;;;1.60;;
20140;SDS011;10231;47.702;9.826;2023-04-25T08:29:04;5.00;;;2.30;;
20140;SDS011;10231;47.702;9.826;2023-04-25T08:31:30;6.23;;;2.20;;
20140;SDS011;10231;47.702;9.826;2023-04-25T08:33:56;2.80;;;2.30;;
20140;SDS011;10231;47.702;9.826;2023-04-25T08:36:21;3.33;;;1.83;;
20140;SDS011;10231;47.702;9.826;2023-04-25T08:38:47;4.03;;;2.27;;
20140;SDS011;10231;47.702;9.826;2023-04-25T08:41:13;1.90;;;1.80;;
20140;SDS011;10231;47.702;9.826;2023-04-25T08:43:40;3.53;;;2.00;;
20140;SDS011;10231;47.702;9.826;2023-04-25T08:46:08;1.57;;;1.47;;
20140;SDS011;10231;47.702;9.826;2023-04-25T08:48:34;3.73;;;2.10;;
20140;SDS011;10231;47.702;9.826;2023-04-25T08:51:01;2.47;;;2.37;;
20140;SDS011;10231;47.702;9.826;2023-04-25T08:53:28;2.53;;;2.10;;
20140;SDS011;10231;47.702;9.826;2023-04-25T08:55:56;2.73;;;2.10;;
20140;SDS011;10231;47.702;9.826;2023-04-25T08:58:23;3.67;;;2.40;;
20140;SDS011;10231;47.702;9.826;2023-04-25T09:00:49;4.37;;;2.50;;
20140;SDS011;10231;47.702;9.826;2023-04-25T09:03:16;3.13;;;2.53;;
20140;SDS011;10231;47.702;9.826;2023-04-25T09:05:42;3.60;;;2.03;;
20140;SDS011;10231;47.702;9.826;2023-04-25T09:08:08;2.50;;;2.30;;
20140;SDS011;10231;47.702;9.826;2023-04-25T09:10:34;2.20;;;2.00;;
20140;SDS011;10231;47.702;9.826;2023-04-25T09:15:29;3.10;;;2.23;;
20140;SDS011;10231;47.702;9.826;2023-04-25T09:17:58;3.17;;;1.90;;
20140;SDS011;10231;47.702;9.826;2023-04-25T09:20:24;1.57;;;1.47;;
20140;SDS011;10231;47.702;9.826;2023-04-25T09:23:03;3.03;;;1.70;;
20140;SDS011;10231;47.702;9.826;2023-04-25T09:25:33;2.17;;;1.43;;
20140;SDS011;10231;47.702;9.826;2023-04-25T09:28:03;4.20;;;2.13;;
20140;SDS011;10231;47.702;9.826;2023-04-25T09:30:30;3.30;;;1.67;;
20140;SDS011;10231;47.702;9.826;2023-04-25T09:32:57;3.47;;;1.93;;
20140;SDS011;10231;47.702;9.826;2023-04-25T09:35:29;2.10;;;1.73;;
20140;SDS011;10231;47.702;9.826;2023-04-25T09:37:59;2.60;;;2.13;;
20140;SDS011;10231;47.702;9.826;2023-04-25T09:40:25;2.43;;;1.90;;
20140;SDS011;10231;47.702;9.826;2023-04-25T09:42:51;2.10;;;1.63;;
20140;SDS011;10231;47.702;9.826;2023-04-25T09:45:17;2.63;;;1.70;;
20140;SDS011;10231;47.702;9.826;2023-04-25T09:47:42;1.80;;;1.70;;
20140;SDS011;10231;47.702;9.826;2023-04-25T09:50:14;1.93;;;1.83;;
20140;SDS011;10231;47.702;9.826;2023-04-25T09:52:41;1.90;;;1.80;;
20140;SDS011;10231;47.702;9.826;2023-04-25T09:55:07;1.93;;;1.83;;
20140;SDS011;10231;47.702;9.826;2023-04-25T09:57:33;1.87;;;1.40;;
20140;SDS011;10231;47.702;9.826;2023-04-25T09:59:59;2.63;;;2.00;;
20140;SDS011;10231;47.702;9.826;2023-04-25T10:02:26;2.90;;;2.00;;
20140;SDS011;10231;47.702;9.826;2023-04-25T10:04:53;2.10;;;1.90;;
20140;SDS011;10231;47.702;9.826;2023-04-25T10:07:20;2.23;;;2.03;;
20140;SDS011;10231;47.702;9.826;2023-04-25T10:09:50;1.77;;;1.40;;
20140;SDS011;10231;47.702;9.826;2023-04-25T10:12:25;1.77;;;1.67;;
20140;SDS011;10231;47.702;9.826;2023-04-25T10:14:52;2.33;;;2.03;;
20140;SDS011;10231;47.702;9.826;2023-04-25T10:17:19;2.40;;;2.10;;
20140;SDS011;10231;47.702;9.826;2023-04-25T10:19:46;1.43;;;1.33;;
20140;SDS011;10231;47.702;9.826;2023-04-25T10:22:20;2.60;;;1.73;;
20140;SDS011;10231;47.702;9.826;2023-04-25T10:24:53;1.90;;;1.80;;
20140;SDS011;10231;47.702;9.826;2023-04-25T10:27:21;1.80;;;1.47;;
20140;SDS011;10231;47.702;9.826;2023-04-25T10:29:51;1.10;;;1.10;;
20140;SDS011;10231;47.702;9.826;2023-04-25T10:32:30;1.77;;;1.67;;
20140;SDS011;10231;47.702;9.826;2023-04-25T10:34:57;1.60;;;1.50;;
20140;SDS011;10231;47.702;9.826;2023-04-25T10:37:34;2.30;;;1.97;;
20140;SDS011;10231;47.702;9.826;2023-04-25T10:40:04;1.77;;;1.67;;
20140;SDS011;10231;47.702;9.826;2023-04-25T10:42:34;1.90;;;1.77;;
20140;SDS011;10231;47.702;9.826;2023-04-25T10:45:01;1.80;;;1.70;;
20140;SDS011;10231;47.702;9.826;2023-04-25T10:47:34;1.90;;;1.80;;
20140;SDS011;10231;47.702;9.826;2023-04-25T10:50:04;1.77;;;1.67;;
20140;SDS011;10231;47.702;9.826;2023-04-25T10:52:33;2.40;;;1.93;;
20140;SDS011;10231;47.702;9.826;2023-04-25T10:54:59;2.97;;;1.53;;
20140;SDS011;10231;47.702;9.826;2023-04-25T10:57:28;1.60;;;1.60;;
20140;SDS011;10231;47.702;9.826;2023-04-25T11:02:36;1.90;;;1.80;;
20140;SDS011;10231;47.702;9.826;2023-04-25T11:05:08;4.10;;;2.17;;
20140;SDS011;10231;47.702;9.826;2023-04-25T11:10:08;1.80;;;1.70;;
20140;SDS011;10231;47.702;9.826;2023-04-25T11:12:34;2.00;;;1.87;;
20140;SDS011;10231;47.702;9.826;2023-04-25T11:15:09;2.10;;;2.00;;
20140;SDS011;10231;47.702;9.826;2023-04-25T11:17:35;3.80;;;2.40;;
20140;SDS011;10231;47.702;9.826;2023-04-25T11:20:00;1.73;;;1.63;;
20140;SDS011;10231;47.702;9.826;2023-04-25T11:22:31;2.03;;;1.93;;
20140;SDS011;10231;47.702;9.826;2023-04-25T11:24:58;1.80;;;1.70;;
20140;SDS011;10231;47.702;9.826;2023-04-25T11:30:22;1.97;;;1.87;;
20140;SDS011;10231;47.702;9.826;2023-04-25T11:32:48;1.83;;;1.20;;
20140;SDS011;10231;47.702;9.826;2023-04-25T11:35:14;1.80;;;1.70;;
20140;SDS011;10231;47.702;9.826;2023-04-25T11:37:40;2.13;;;1.90;;
20140;SDS011;10231;47.702;9.826;2023-04-25T11:40:07;1.67;;;1.57;;
20140;SDS011;10231;47.702;9.826;2023-04-25T11:42:34;1.97;;;1.87;;
20140;SDS011;10231;47.702;9.826;2023-04-25T11:45:02;1.80;;;1.80;;
20140;SDS011;10231;47.702;9.826;2023-04-25T11:47:29;2.53;;;1.70;;
20140;SDS011;10231;47.702;9.826;2023-04-25T11:49:57;1.60;;;1.50;;
20140;SDS011;10231;47.702;9.826;2023-04-25T11:52:24;1.50;;;1.40;;
20140;SDS011;10231;47.702;9.826;2023-04-25T11:54:59;1.50;;;1.40;;
20140;SDS011;10231;47.702;9.826;2023-04-25T11:57:25;1.90;;;1.77;;
20140;SDS011;10231;47.702;9.826;2023-04-25T11:59:50;1.07;;;1.07;;
20140;SDS011;10231;47.702;9.826;2023-04-25T12:02:25;1.57;;;1.57;;
20140;SDS011;10231;47.702;9.826;2023-04-25T12:04:51;1.20;;;1.13;;
20140;SDS011;10231;47.702;9.826;2023-04-25T12:07:17;1.93;;;1.47;;
20140;SDS011;10231;47.702;9.826;2023-04-25T12:09:50;1.80;;;1.70;;
20140;SDS011;10231;47.702;9.826;2023-04-25T12:12:17;1.83;;;1.73;;
20140;SDS011;10231;47.702;9.826;2023-04-25T12:14:45;1.87;;;1.70;;
20140;SDS011;10231;47.702;9.826;2023-04-25T12:17:15;1.27;;;1.27;;
20140;SDS011;10231;47.702;9.826;2023-04-25T12:19:41;1.30;;;1.20;;
20140;SDS011;10231;47.702;9.826;2023-04-25T12:22:19;2.03;;;1.30;;
20140;SDS011;10231;47.702;9.826;2023-04-25T12:24:46;1.00;;;1.00;;
20140;SDS011;10231;47.702;9.826;2023-04-25T12:27:13;1.17;;;1.17;;
20140;SDS011;10231;47.702;9.826;2023-04-25T12:29:49;1.40;;;1.20;;
20140;SDS011;10231;47.702;9.826;2023-04-25T12:32:19;0.87;;;0.87;;
20140;SDS011;10231;47.702;9.826;2023-04-25T12:34:45;0.90;;;0.90;;
20140;SDS011;10231;47.702;9.826;2023-04-25T12:37:11;0.70;;;0.70;;
20140;SDS011;10231;47.702;9.826;2023-04-25T12:39:36;0.60;;;0.60;;
20140;SDS011;10231;47.702;9.826;2023-04-25T12:42:02;0.80;;;0.80;;
20140;SDS011;10231;47.702;9.826;2023-04-25T12:44:28;0.50;;;0.50;;
20140;SDS011;10231;47.702;9.826;2023-04-25T12:46:54;0.90;;;0.90;;
20140;SDS011;10231;47.702;9.826;2023-04-25T12:49:20;1.50;;;1.17;;
20140;SDS011;10231;47.702;9.826;2023-04-25T12:51:45;1.77;;;1.67;;
20140;SDS011;10231;47.702;9.826;2023-04-25T12:54:16;1.53;;;1.43;;
20140;SDS011;10231;47.702;9.826;2023-04-25T12:56:42;1.17;;;1.00;;
20140;SDS011;10231;47.702;9.826;2023-04-25T12:59:07;0.70;;;0.70;;
20140;SDS011;10231;47.702;9.826;2023-04-25T13:01:34;1.80;;;1.10;;
20140;SDS011;10231;47.702;9.826;2023-04-25T13:03:59;0.40;;;0.40;;
20140;SDS011;10231;47.702;9.826;2023-04-25T13:06:25;0.40;;;0.30;;
20140;SDS011;10231;47.702;9.826;2023-04-25T13:08:51;0.30;;;0.30;;
20140;SDS011;10231;47.702;9.826;2023-04-25T13:11:16;0.30;;;0.30;;
20140;SDS011;10231;47.702;9.826;2023-04-25T13:13:43;0.30;;;0.30;;
20140;SDS011;10231;47.702;9.826;2023-04-25T13:16:09;0.60;;;0.60;;
20140;SDS011;10231;47.702;9.826;2023-04-25T13:18:35;0.67;;;0.67;;
20140;SDS011;10231;47.702;9.826;2023-04-25T13:21:01;0.97;;;0.50;;
20140;SDS011;10231;47.702;9.826;2023-04-25T13:23:28;0.40;;;0.40;;
20140;SDS011;10231;47.702;9.826;2023-04-25T13:25:55;0.40;;;0.40;;
20140;SDS011;10231;47.702;9.826;2023-04-25T13:28:22;0.53;;;0.53;;
20140;SDS011;10231;47.702;9.826;2023-04-25T13:30:51;0.83;;;0.37;;
20140;SDS011;10231;47.702;9.826;2023-04-25T13:33:17;0.30;;;0.30;;
20140;SDS011;10231;47.702;9.826;2023-04-25T13:35:43;1.03;;;0.40;;
20140;SDS011;10231;47.702;9.826;2023-04-25T13:38:12;0.20;;;0.20;;
20140;SDS011;10231;47.702;9.826;2023-04-25T13:40:38;0.30;;;0.30;;
20140;SDS011;10231;47.702;9.826;2023-04-25T13:43:03;0.30;;;0.30;;
20140;SDS011;10231;47.702;9.826;2023-04-25T13:45:31;1.07;;;0.50;;
20140;SDS011;10231;47.702;9.826;2023-04-25T13:47:57;0.40;;;0.40;;
20140;SDS011;10231;47.702;9.826;2023-04-25T13:50:22;0.50;;;0.50;;
20140;SDS011;10231;47.702;9.826;2023-04-25T13:52:48;1.00;;;0.40;;
20140;SDS011;10231;47.702;9.826;2023-04-25T13:55:13;0.40;;;0.40;;
20140;SDS011;10231;47.702;9.826;2023-04-25T13:57:39;0.40;;;0.40;;
20140;SDS011;10231;47.702;9.826;2023-04-25T14:00:05;0.30;;;0.30;;
20140;SDS011;10231;47.702;9.826;2023-04-25T14:02:34;0.30;;;0.30;;
20140;SDS011;10231;47.702;9.826;2023-04-25T14:05:00;0.50;;;0.50;;
20140;SDS011;10231;47.702;9.826;2023-04-25T14:07:26;1.20;;;0.30;;
20140;SDS011;10231;47.702;9.826;2023-04-25T14:09:52;0.30;;;0.30;;
20140;SDS011;10231;47.702;9.826;2023-04-25T14:12:17;0.20;;;0.20;;
20140;SDS011;10231;47.702;9.826;2023-04-25T14:14:43;1.30;;;0.20;;
20140;SDS011;10231;47.702;9.826;2023-04-25T14:17:08;0.30;;;0.30;;
20140;SDS011;10231;47.702;9.826;2023-04-25T14:19:34;0.20;;;0.20;;
20140;SDS011;10231;47.702;9.826;2023-04-25T14:22:00;0.87;;;0.20;;
20140;SDS011;10231;47.702;9.826;2023-04-25T14:24:26;0.20;;;0.20;;
20140;SDS011;10231;47.702;9.826;2023-04-25T14:26:51;0.13;;;0.13;;
20140;SDS011;10231;47.702;9.826;2023-04-25T14:29:17;0.20;;;0.20;;
20140;SDS011;10231;47.702;9.826;2023-04-25T14:31:42;0.30;;;0.30;;
20140;SDS011;10231;47.702;9.826;2023-04-25T14:34:08;0.20;;;0.20;;
20140;SDS011;10231;47.702;9.826;2023-04-25T14:36:35;0.40;;;0.40;;
20140;SDS011;10231;47.702;9.826;2023-04-25T14:39:00;0.30;;;0.30;;
20140;SDS011;10231;47.702;9.826;2023-04-25T14:41:26;0.20;;;0.20;;
20140;SDS011;10231;47.702;9.826;2023-04-25T14:43:52;0.40;;;0.40;;
20140;SDS011;10231;47.702;9.826;2023-04-25T14:46:18;0.37;;;0.37;;
20140;SDS011;10231;47.702;9.826;2023-04-25T14:48:45;0.30;;;0.30;;
20140;SDS011;10231;47.702;9.826;2023-04-25T14:51:12;0.40;;;0.20;;
20140;SDS011;10231;47.702;9.826;2023-04-25T14:53:37;0.20;;;0.20;;